createdAt,value
2024-03-01T00:00:23.196Z,9.41
2024-03-01T00:03:10.377Z,9.36
2024-03-01T00:05:37.969Z,9.34
2024-03-01T00:08:05.724Z,9.33
2024-03-01T00:10:32.931Z,9.40
2024-03-01T00:13:02.613Z,9.41
2024-03-01T00:15:30.858Z,9.39
2024-03-01T00:17:57.886Z,9.33
2024-03-01T00:20:25.505Z,9.35
2024-03-01T00:22:55.524Z,9.34
2024-03-01T00:25:25.496Z,9.29
2024-03-01T00:27:52.522Z,9.26
2024-03-01T00:30:20.097Z,9.27
2024-03-01T00:32:49.541Z,9.28
2024-03-01T00:35:17.330Z,9.27
2024-03-01T00:37:44.374Z,9.27
2024-03-01T00:40:11.852Z,9.30
2024-03-01T00:42:39.342Z,9.27
2024-03-01T00:45:06.936Z,9.20
2024-03-01T00:47:33.961Z,9.20
2024-03-01T00:50:01.195Z,9.18
2024-03-01T00:52:30.555Z,9.13
2024-03-01T00:54:57.993Z,9.13
2024-03-01T00:57:25.510Z,9.06
2024-03-01T00:59:52.734Z,9.02
2024-03-01T01:02:39.246Z,8.99
2024-03-01T01:05:09.658Z,8.94
2024-03-01T01:07:36.901Z,8.92
2024-03-01T01:10:05.556Z,8.89
2024-03-01T01:12:32.816Z,8.87
2024-03-01T01:15:02.685Z,8.85
2024-03-01T01:17:29.838Z,8.82
2024-03-01T01:19:57.761Z,8.83
2024-03-01T01:22:25.703Z,8.72
2024-03-01T01:24:53.644Z,8.72
2024-03-01T01:27:20.883Z,8.69
2024-03-01T01:29:48.285Z,8.67
2024-03-01T01:32:15.202Z,8.66
2024-03-01T01:34:42.602Z,8.64
2024-03-01T01:37:09.635Z,8.59
2024-03-01T01:39:37.003Z,8.59
2024-03-01T01:42:04.125Z,8.56
2024-03-01T01:44:33.588Z,8.54
2024-03-01T01:47:00.616Z,8.55
2024-03-01T01:49:28.493Z,8.52
2024-03-01T01:51:55.796Z,8.47
2024-03-01T01:54:24.352Z,8.44
2024-03-01T01:56:51.574Z,8.43
2024-03-01T01:59:19.185Z,8.43
2024-03-01T02:01:49.212Z,8.37
2024-03-01T02:04:16.576Z,8.34
2024-03-01T02:06:45.806Z,8.26
2024-03-01T02:09:14.140Z,8.28
2024-03-01T02:11:41.736Z,8.24
2024-03-01T02:14:11.529Z,8.29
2024-03-01T02:16:38.661Z,8.30
2024-03-01T02:19:09.488Z,8.32
2024-03-01T02:21:40.483Z,8.36
2024-03-01T02:24:10.792Z,8.41
2024-03-01T02:26:37.823Z,8.45
2024-03-01T02:29:07.410Z,8.44
2024-03-01T02:31:34.391Z,8.44
2024-03-01T02:34:01.561Z,8.41
2024-03-01T02:36:28.775Z,8.42
2024-03-01T02:38:55.921Z,8.48
2024-03-01T02:41:22.819Z,8.50
2024-03-01T02:43:50.070Z,8.53
2024-03-01T02:46:17.140Z,8.61
2024-03-01T02:48:44.382Z,8.58
2024-03-01T02:51:11.200Z,8.62
2024-03-01T02:53:38.601Z,8.66
2024-03-01T02:56:05.712Z,8.70
2024-03-01T02:58:33.075Z,8.73
2024-03-01T03:01:00.132Z,8.76
2024-03-01T03:03:29.699Z,8.80
2024-03-01T03:05:56.646Z,8.78
2024-03-01T03:08:23.971Z,8.72
2024-03-01T03:10:51.032Z,8.77
2024-03-01T03:13:19.107Z,8.79
2024-03-01T03:15:46.468Z,8.79
2024-03-01T03:18:13.824Z,8.83
2024-03-01T03:20:40.777Z,8.84
2024-03-01T03:23:08.347Z,8.85
2024-03-01T03:25:37.714Z,8.81
2024-03-01T03:28:05.443Z,8.78
2024-03-01T03:30:32.588Z,8.77
2024-03-01T03:32:59.898Z,8.73
2024-03-01T03:35:29.355Z,8.75
2024-03-01T03:37:56.681Z,8.75
2024-03-01T03:40:23.679Z,8.78
2024-03-01T03:42:50.951Z,8.80
2024-03-01T03:45:18.001Z,8.81
2024-03-01T03:47:45.289Z,8.84
2024-03-01T03:50:15.011Z,8.83
2024-03-01T03:52:43.064Z,8.87
2024-03-01T03:55:10.266Z,8.88
2024-03-01T03:57:37.763Z,8.85
2024-03-01T04:00:05.790Z,8.72
2024-03-01T04:02:36.800Z,8.68
2024-03-01T04:05:03.942Z,8.51
2024-03-01T04:07:33.926Z,8.45
2024-03-01T04:10:00.990Z,8.35
2024-03-01T04:12:28.661Z,8.31
2024-03-01T04:14:55.519Z,8.30
2024-03-01T04:17:22.901Z,8.25
2024-03-01T04:19:50.033Z,8.23
2024-03-01T04:22:17.378Z,8.21
2024-03-01T04:24:45.168Z,8.20
2024-03-01T04:27:15.758Z,8.20
2024-03-01T04:29:42.714Z,8.15
2024-03-01T04:32:12.369Z,8.13
2024-03-01T04:34:39.450Z,8.07
2024-03-01T04:37:06.793Z,8.10
2024-03-01T04:39:33.731Z,8.08
2024-03-01T04:42:01.622Z,8.10
2024-03-01T04:44:28.660Z,8.10
2024-03-01T04:46:57.489Z,8.14
2024-03-01T04:49:24.794Z,8.17
2024-03-01T04:51:52.139Z,8.25
2024-03-01T04:54:19.114Z,8.27
2024-03-01T04:56:46.296Z,8.28
2024-03-01T04:59:15.595Z,8.33
2024-03-01T05:01:43.826Z,8.30
2024-03-01T05:04:13.502Z,8.30
2024-03-01T05:06:40.853Z,8.34
2024-03-01T05:09:10.454Z,8.35
2024-03-01T05:11:37.886Z,8.38
2024-03-01T05:14:05.185Z,8.36
2024-03-01T05:16:32.756Z,8.35
2024-03-01T05:18:59.684Z,8.29
2024-03-01T05:21:27.013Z,8.22
2024-03-01T05:23:54.318Z,8.18
2024-03-01T05:26:21.799Z,8.16
2024-03-01T05:28:48.835Z,8.18
2024-03-01T05:31:22.333Z,8.13
2024-03-01T05:33:52.507Z,8.12
2024-03-01T05:36:19.916Z,8.06
2024-03-01T05:38:46.967Z,8.06
2024-03-01T05:41:14.288Z,8.04
2024-03-01T05:43:41.806Z,8.06
2024-03-01T05:46:16.239Z,8.06
2024-03-01T05:48:44.278Z,8.05
2024-03-01T05:51:12.724Z,8.06
2024-03-01T05:53:43.655Z,8.07
2024-03-01T05:56:19.190Z,8.11
2024-03-01T05:58:47.634Z,8.14
2024-03-01T06:01:18.207Z,8.23
2024-03-01T06:03:48.720Z,8.31
2024-03-01T06:06:16.881Z,8.36
2024-03-01T06:08:44.082Z,8.32
2024-03-01T06:11:11.769Z,8.34
2024-03-01T06:13:41.606Z,8.36
2024-03-01T06:16:09.107Z,8.44
2024-03-01T06:18:36.074Z,8.51
2024-03-01T06:21:03.885Z,8.57
2024-03-01T06:23:31.748Z,8.57
2024-03-01T06:25:59.223Z,8.59
2024-03-01T06:28:26.228Z,8.59
2024-03-01T06:30:55.962Z,8.58
2024-03-01T06:33:23.104Z,8.60
2024-03-01T06:35:50.421Z,8.62
2024-03-01T06:38:19.978Z,8.65
2024-03-01T06:40:47.421Z,8.64
2024-03-01T06:43:14.399Z,8.66
2024-03-01T06:45:41.833Z,8.67
2024-03-01T06:48:13.180Z,8.74
2024-03-01T06:50:42.691Z,8.79
2024-03-01T06:53:09.720Z,8.92
2024-03-01T06:55:37.203Z,9.01
2024-03-01T06:58:04.406Z,9.09
2024-03-01T07:00:33.637Z,9.13
2024-03-01T07:03:04.323Z,9.23
2024-03-01T07:05:31.973Z,9.28
2024-03-01T07:07:59.030Z,9.29
2024-03-01T07:10:26.536Z,9.35
2024-03-01T07:12:53.503Z,9.37
2024-03-01T07:15:20.814Z,9.41
2024-03-01T07:17:48.059Z,9.46
2024-03-01T07:20:15.337Z,9.53
2024-03-01T07:22:42.440Z,9.58
2024-03-01T07:25:09.826Z,9.66
2024-03-01T07:27:36.919Z,9.72
2024-03-01T07:30:06.292Z,9.77
2024-03-01T07:32:35.572Z,9.82
2024-03-01T07:35:05.131Z,9.94
2024-03-01T07:37:35.088Z,9.96
2024-03-01T07:40:02.653Z,10.06
2024-03-01T07:42:30.053Z,10.06
2024-03-01T07:44:57.632Z,10.17
2024-03-01T07:47:30.851Z,10.31
2024-03-01T07:49:59.110Z,10.41
2024-03-01T07:52:30.017Z,10.46
2024-03-01T07:54:57.522Z,10.61
2024-03-01T07:57:24.699Z,10.65
2024-03-01T07:59:52.460Z,10.74
2024-03-01T08:02:19.399Z,10.79
2024-03-01T08:04:46.702Z,10.94
2024-03-01T08:07:17.211Z,11.00
2024-03-01T08:09:45.621Z,11.18
2024-03-01T08:12:14.535Z,11.37
2024-03-01T08:14:43.974Z,11.43
2024-03-01T08:17:11.042Z,11.67
2024-03-01T08:19:39.661Z,11.77
2024-03-01T08:22:10.980Z,11.85
2024-03-01T08:24:39.741Z,11.96
2024-03-01T08:27:08.033Z,12.02
2024-03-01T08:29:35.758Z,12.02
2024-03-01T08:32:05.519Z,12.12
2024-03-01T08:34:41.539Z,12.01
2024-03-01T08:37:08.813Z,11.93
2024-03-01T08:39:37.943Z,11.87
2024-03-01T08:42:05.423Z,11.85
2024-03-01T08:44:51.409Z,11.75
2024-03-01T08:47:40.892Z,11.69
2024-03-01T08:50:27.136Z,11.50
2024-03-01T08:52:54.182Z,11.59
2024-03-01T08:55:21.932Z,11.70
2024-03-01T08:57:49.857Z,11.91
2024-03-01T09:00:29.086Z,11.88
2024-03-01T09:02:56.631Z,11.85
2024-03-01T09:05:24.008Z,11.99
2024-03-01T09:07:53.360Z,11.93
2024-03-01T09:10:20.683Z,11.90
2024-03-01T09:12:47.989Z,11.99
2024-03-01T09:15:16.511Z,11.97
2024-03-01T09:17:43.484Z,11.85
2024-03-01T09:20:23.280Z,11.87
2024-03-01T09:22:50.259Z,12.07
2024-03-01T09:25:36.549Z,12.11
2024-03-01T09:28:03.762Z,12.10
2024-03-01T09:30:33.406Z,12.17
2024-03-01T09:33:00.565Z,12.10
2024-03-01T09:35:27.958Z,12.17
2024-03-01T09:37:55.909Z,12.22
2024-03-01T09:40:29.084Z,12.27
2024-03-01T09:43:02.547Z,12.14
2024-03-01T09:45:48.451Z,12.12
2024-03-01T09:48:18.438Z,12.02
2024-03-01T09:51:00.060Z,12.04
2024-03-01T09:53:27.241Z,12.01
2024-03-01T09:56:15.788Z,11.97
2024-03-01T09:58:55.016Z,12.00
2024-03-01T10:01:28.052Z,11.81
2024-03-01T10:03:59.685Z,11.83
2024-03-01T10:06:39.372Z,11.87
2024-03-01T10:09:25.494Z,12.01
2024-03-01T10:12:02.252Z,11.95
2024-03-01T10:14:44.637Z,11.96
2024-03-01T10:17:28.697Z,11.90
2024-03-01T10:20:12.563Z,11.80
2024-03-01T10:22:43.804Z,11.74
2024-03-01T10:25:26.545Z,11.89
2024-03-01T10:28:04.033Z,11.91
2024-03-01T10:30:39.568Z,11.92
2024-03-01T10:33:07.105Z,11.81
2024-03-01T10:35:40.641Z,11.68
2024-03-01T10:38:11.321Z,11.69
2024-03-01T10:41:02.835Z,11.71
2024-03-01T10:43:37.736Z,11.62
2024-03-01T10:46:07.152Z,11.55
2024-03-01T10:48:39.854Z,11.47
2024-03-01T10:51:08.301Z,11.43
2024-03-01T10:53:38.164Z,11.48
2024-03-01T10:56:05.672Z,11.59
2024-03-01T10:58:32.987Z,11.58
2024-03-01T11:01:17.821Z,11.51
2024-03-01T11:03:50.959Z,11.40
2024-03-01T11:06:23.544Z,11.28
2024-03-01T11:08:50.815Z,11.30
2024-03-01T11:11:36.174Z,11.32
2024-03-01T11:14:05.109Z,11.31
2024-03-01T11:16:36.663Z,11.32
2024-03-01T11:19:10.783Z,11.34
2024-03-01T11:21:40.047Z,11.34
2024-03-01T11:24:11.478Z,11.30
2024-03-01T11:26:45.194Z,11.32
2024-03-01T11:29:33.750Z,11.32
2024-03-01T11:32:07.675Z,11.43
2024-03-01T11:34:44.712Z,11.44
2024-03-01T11:37:19.246Z,11.44
2024-03-01T11:39:49.764Z,11.42
2024-03-01T11:42:31.079Z,11.37
2024-03-01T11:45:01.738Z,11.45
2024-03-01T11:47:47.477Z,11.44
2024-03-01T11:50:18.462Z,11.46
2024-03-01T11:53:00.261Z,11.42
2024-03-01T11:55:46.288Z,11.37
2024-03-01T11:58:22.947Z,11.37
2024-03-01T12:01:06.846Z,11.35
2024-03-01T12:03:47.078Z,11.36
2024-03-01T12:06:17.769Z,11.35
2024-03-01T12:08:55.569Z,11.42
2024-03-01T12:11:44.328Z,11.39
2024-03-01T12:14:15.439Z,11.24
2024-03-01T12:16:48.916Z,11.15
2024-03-01T12:19:28.363Z,11.00
2024-03-01T12:22:14.434Z,10.97
2024-03-01T12:24:42.201Z,10.97
2024-03-01T12:27:15.401Z,10.91
2024-03-01T12:29:46.003Z,10.79
2024-03-01T12:32:15.671Z,10.69
2024-03-01T12:34:50.095Z,10.68
2024-03-01T12:37:20.136Z,10.61
2024-03-01T12:39:58.625Z,10.58
2024-03-01T12:42:40.353Z,10.49
2024-03-01T12:45:13.391Z,10.52
2024-03-01T12:47:49.898Z,10.50
2024-03-01T12:50:35.417Z,10.56
2024-03-01T12:53:06.570Z,10.50
2024-03-01T12:55:48.159Z,10.70
2024-03-01T12:58:34.570Z,10.85
2024-03-01T13:01:14.990Z,11.04
2024-03-01T13:03:42.784Z,11.22
2024-03-01T13:06:10.472Z,11.33
2024-03-01T13:08:47.408Z,11.03
2024-03-01T13:11:15.057Z,11.00
2024-03-01T13:13:48.310Z,10.91
2024-03-01T13:16:19.714Z,10.75
2024-03-01T13:18:53.312Z,10.64
2024-03-01T13:21:27.271Z,10.65
2024-03-01T13:24:09.171Z,10.67
2024-03-01T13:26:39.230Z,10.73
2024-03-01T13:29:19.231Z,10.72
2024-03-01T13:31:54.020Z,10.61
2024-03-01T13:34:25.202Z,10.63
2024-03-01T13:37:01.682Z,10.72
2024-03-01T13:39:36.533Z,10.77
2024-03-01T13:42:09.298Z,10.74
2024-03-01T13:44:40.365Z,10.71
2024-03-01T13:47:07.348Z,10.69
2024-03-01T13:49:41.432Z,10.50
2024-03-01T13:52:10.192Z,10.34
2024-03-01T13:54:38.435Z,10.24
2024-03-01T13:57:09.113Z,10.17
2024-03-01T13:59:37.504Z,10.18
2024-03-01T14:02:05.210Z,10.17
2024-03-01T14:04:36.302Z,10.17
2024-03-01T14:07:04.404Z,10.10
2024-03-01T14:09:31.809Z,10.10
2024-03-01T14:11:58.872Z,10.07
2024-03-01T14:14:26.322Z,10.03
2024-03-01T14:16:53.442Z,10.03
2024-03-01T14:19:20.800Z,9.99
2024-03-01T14:21:47.851Z,9.98
2024-03-01T14:24:18.558Z,9.96
2024-03-01T14:26:46.470Z,9.96
2024-03-01T14:29:13.849Z,9.95
2024-03-01T14:32:02.488Z,9.95
2024-03-01T14:34:37.085Z,9.93
2024-03-01T14:37:05.675Z,9.98
2024-03-01T14:39:33.210Z,9.99
2024-03-01T14:42:00.127Z,10.01
2024-03-01T14:44:30.631Z,9.97
2024-03-01T14:47:12.122Z,10.02
2024-03-01T14:49:43.847Z,10.03
2024-03-01T14:52:12.210Z,10.09
2024-03-01T14:54:39.928Z,10.08
2024-03-01T14:57:07.529Z,10.09
2024-03-01T14:59:35.057Z,10.07
2024-03-01T15:02:04.335Z,10.06
2024-03-01T15:04:31.817Z,10.01
2024-03-01T15:06:59.770Z,10.04
2024-03-01T15:09:27.145Z,9.98
2024-03-01T15:11:54.674Z,9.98
2024-03-01T15:14:25.518Z,9.93
2024-03-01T15:16:53.585Z,9.94
2024-03-01T15:19:21.201Z,9.95
2024-03-01T15:21:50.243Z,9.94
2024-03-01T15:24:21.480Z,9.92
2024-03-01T15:26:49.336Z,9.96
2024-03-01T15:29:16.970Z,9.98
2024-03-01T15:31:44.763Z,10.00
2024-03-01T15:34:12.222Z,9.98
2024-03-01T15:36:39.228Z,9.97
2024-03-01T15:39:09.844Z,10.00
2024-03-01T15:41:39.044Z,10.04
2024-03-01T15:44:06.844Z,9.96
2024-03-01T15:46:34.353Z,10.00
2024-03-01T15:49:02.302Z,10.03
2024-03-01T15:51:29.510Z,10.00
2024-03-01T15:53:59.195Z,9.98
2024-03-01T15:56:26.147Z,9.97
2024-03-01T15:58:53.525Z,10.00
2024-03-01T16:01:23.835Z,9.97
2024-03-01T16:03:52.258Z,10.00
2024-03-01T16:06:22.595Z,9.97
2024-03-01T16:08:50.251Z,9.97
2024-03-01T16:11:17.272Z,9.95
2024-03-01T16:13:44.752Z,9.94
2024-03-01T16:16:14.159Z,9.95
2024-03-01T16:18:41.893Z,9.88
2024-03-01T16:21:09.407Z,9.86
2024-03-01T16:23:39.763Z,9.85
2024-03-01T16:26:14.425Z,9.85
2024-03-01T16:28:44.820Z,9.76
2024-03-01T16:31:16.440Z,9.69
2024-03-01T16:33:43.668Z,9.66
2024-03-01T16:36:17.690Z,9.60
2024-03-01T16:38:50.308Z,9.59
2024-03-01T16:41:34.212Z,9.54
2024-03-01T16:44:03.401Z,9.51
2024-03-01T16:46:33.640Z,9.51
2024-03-01T16:49:04.943Z,9.51
2024-03-01T16:51:39.556Z,9.49
2024-03-01T16:54:10.329Z,9.49
2024-03-01T16:56:42.200Z,9.49
2024-03-01T16:59:09.841Z,9.53
2024-03-01T17:01:47.030Z,9.52
2024-03-01T17:04:20.025Z,9.57
2024-03-01T17:06:50.651Z,9.52
2024-03-01T17:09:22.066Z,9.53
2024-03-01T17:11:51.128Z,9.55
2024-03-01T17:14:18.791Z,9.58
2024-03-01T17:16:48.563Z,9.62
2024-03-01T17:19:30.254Z,9.63
2024-03-01T17:22:04.390Z,9.61
2024-03-01T17:24:34.429Z,9.63
2024-03-01T17:27:01.544Z,9.65
2024-03-01T17:29:28.814Z,9.68
2024-03-01T17:31:58.328Z,9.66
2024-03-01T17:34:25.841Z,9.68
2024-03-01T17:36:53.010Z,9.75
2024-03-01T17:39:22.588Z,9.76
2024-03-01T17:41:49.584Z,9.73
2024-03-01T17:44:17.355Z,9.78
2024-03-01T17:46:46.877Z,9.83
2024-03-01T17:49:14.447Z,9.80
2024-03-01T17:51:41.458Z,9.80
2024-03-01T17:54:08.756Z,9.81
2024-03-01T17:56:38.495Z,9.81
2024-03-01T17:59:05.840Z,9.87
2024-03-01T18:01:33.071Z,9.86
2024-03-01T18:04:00.356Z,9.86
2024-03-01T18:06:27.579Z,9.84
2024-03-01T18:08:55.120Z,9.84
2024-03-01T18:11:22.054Z,9.82
2024-03-01T18:13:49.356Z,9.84
2024-03-01T18:16:16.431Z,9.90
2024-03-01T18:18:44.021Z,9.90
2024-03-01T18:21:11.188Z,9.86
2024-03-01T18:23:38.464Z,9.90
2024-03-01T18:26:06.348Z,9.88
2024-03-01T18:28:33.990Z,9.92
2024-03-01T18:31:02.886Z,9.99
2024-03-01T18:33:31.496Z,9.94
2024-03-01T18:36:00.013Z,9.94
2024-03-01T18:38:28.921Z,9.94
2024-03-01T18:40:55.958Z,9.97
2024-03-01T18:43:23.601Z,10.01
2024-03-01T18:45:50.646Z,10.01
2024-03-01T18:48:18.546Z,9.99
2024-03-01T18:50:45.976Z,9.98
2024-03-01T18:53:13.509Z,10.03
2024-03-01T18:55:42.325Z,10.02
2024-03-01T18:58:12.068Z,10.04
2024-03-01T19:00:43.479Z,10.02
2024-03-01T19:03:12.212Z,9.98
2024-03-01T19:05:39.361Z,9.97
2024-03-01T19:08:09.591Z,9.93
2024-03-01T19:10:37.261Z,9.96
2024-03-01T19:13:05.297Z,9.92
2024-03-01T19:15:35.305Z,9.94
2024-03-01T19:18:07.799Z,9.95
2024-03-01T19:20:36.410Z,9.95
2024-03-01T19:23:08.339Z,9.89
2024-03-01T19:25:36.078Z,9.80
2024-03-01T19:28:04.162Z,9.72
2024-03-01T19:30:31.826Z,9.65
2024-03-01T19:32:59.679Z,9.61
2024-03-01T19:35:33.864Z,9.59
2024-03-01T19:38:01.739Z,9.41
2024-03-01T19:40:30.026Z,9.23
2024-03-01T19:42:58.195Z,9.13
2024-03-01T19:45:30.598Z,9.06
2024-03-01T19:48:03.396Z,9.05
2024-03-01T19:50:30.869Z,9.04
2024-03-01T19:53:02.041Z,8.94
2024-03-01T19:55:29.976Z,8.90
2024-03-01T19:57:58.457Z,8.98
2024-03-01T20:00:26.079Z,8.84
2024-03-01T20:02:54.149Z,8.64
2024-03-01T20:05:21.467Z,8.56
2024-03-01T20:07:49.598Z,8.45
2024-03-01T20:10:17.424Z,8.35
2024-03-01T20:12:48.492Z,8.24
2024-03-01T20:15:16.069Z,8.11
2024-03-01T20:17:44.073Z,8.08
2024-03-01T20:20:12.064Z,8.04
2024-03-01T20:22:39.743Z,8.01
2024-03-01T20:25:07.417Z,7.96
2024-03-01T20:27:37.323Z,7.93
2024-03-01T20:30:05.235Z,7.84
2024-03-01T20:32:33.185Z,7.77
2024-03-01T20:35:00.868Z,7.69
2024-03-01T20:37:28.909Z,7.58
2024-03-01T20:39:56.534Z,7.50
2024-03-01T20:42:25.961Z,7.46
2024-03-01T20:44:53.916Z,7.44
2024-03-01T20:47:22.320Z,7.40
2024-03-01T20:49:49.881Z,7.33
2024-03-01T20:52:18.051Z,7.30
2024-03-01T20:54:45.326Z,7.29
2024-03-01T20:57:12.913Z,7.26
2024-03-01T20:59:40.180Z,7.23
2024-03-01T21:02:07.514Z,7.22
2024-03-01T21:04:35.157Z,7.17
2024-03-01T21:07:05.718Z,7.15
2024-03-01T21:09:38.847Z,7.09
2024-03-01T21:12:09.811Z,6.99
2024-03-01T21:14:38.328Z,6.96
2024-03-01T21:17:06.332Z,6.94
2024-03-01T21:19:33.495Z,6.98
2024-03-01T21:24:31.143Z,6.84
2024-03-01T21:26:59.005Z,6.76
2024-03-01T21:29:26.571Z,6.72
2024-03-01T21:31:55.973Z,6.68
2024-03-01T21:34:23.602Z,6.62
2024-03-01T21:36:52.157Z,6.62
2024-03-01T21:39:23.087Z,6.72
2024-03-01T21:41:50.338Z,6.65
2024-03-01T21:44:19.643Z,6.57
2024-03-01T21:46:47.145Z,6.50
2024-03-01T21:49:14.029Z,6.46
2024-03-01T21:51:41.221Z,6.40
2024-03-01T21:54:08.217Z,6.39
2024-03-01T21:56:35.460Z,6.36
2024-03-01T21:59:04.856Z,6.36
2024-03-01T22:01:32.815Z,6.38
2024-03-01T22:03:59.801Z,6.40
2024-03-01T22:06:29.320Z,6.38
2024-03-01T22:08:56.192Z,6.34
2024-03-01T22:11:25.989Z,6.30
2024-03-01T22:13:53.009Z,6.23
2024-03-01T22:16:20.240Z,6.12
2024-03-01T22:18:47.587Z,6.00
2024-03-01T22:21:14.965Z,5.98
2024-03-01T22:23:41.996Z,6.05
2024-03-01T22:26:09.247Z,6.06
2024-03-01T22:28:36.061Z,5.98
2024-03-01T22:31:03.902Z,5.94
2024-03-01T22:33:33.215Z,6.00
2024-03-01T22:36:02.157Z,5.89
2024-03-01T22:38:29.272Z,5.92
2024-03-01T22:40:56.692Z,5.96
2024-03-01T22:43:23.743Z,5.98
2024-03-01T22:45:53.404Z,5.96
2024-03-01T22:48:20.768Z,5.91
2024-03-01T22:50:48.215Z,5.86
2024-03-01T22:53:19.502Z,5.81
2024-03-01T22:55:47.687Z,5.79
2024-03-01T22:58:19.025Z,5.83
2024-03-01T23:00:47.826Z,5.73
2024-03-01T23:03:33.721Z,5.63
2024-03-01T23:06:01.566Z,5.56
2024-03-01T23:08:37.690Z,5.62
2024-03-01T23:11:08.604Z,5.63
2024-03-01T23:13:39.182Z,5.55
2024-03-01T23:16:06.827Z,5.43
2024-03-01T23:18:33.977Z,5.48
2024-03-01T23:21:01.426Z,5.51
2024-03-01T23:23:28.758Z,5.36
2024-03-01T23:25:56.255Z,5.28
2024-03-01T23:28:24.694Z,5.24
2024-03-01T23:30:52.109Z,5.21
2024-03-01T23:33:21.526Z,5.10
2024-03-01T23:35:51.283Z,5.01
2024-03-01T23:38:18.348Z,4.93
2024-03-01T23:40:55.149Z,4.85
2024-03-01T23:43:26.158Z,4.88
2024-03-01T23:45:56.412Z,4.85
2024-03-01T23:48:25.260Z,4.95
2024-03-01T23:50:52.619Z,4.95
2024-03-01T23:53:19.842Z,5.02
2024-03-01T23:55:47.307Z,5.05
2024-03-01T23:58:14.423Z,5.08
